Time;durP1;ratioP1;P1;durP2;ratioP2;P2;SDS_P1;SDS_P2;PMS_P1;PMS_P2;Temp;Humidity;BMP_temperature;BMP_pressure;BME280_temperature;BME280_humidity;BME280_pressure;Samples;Min_cycle;Max_cycle;Signal;HPM_P1;HPM_P2
2022/10/04 00:01:50;;;;;;;8.07;4.82;;;6.30;99.90;;;;;;4996235;28;20190;-74
2022/10/04 00:04:15;;;;;;;10.47;4.70;;;6.40;99.90;;;;;;4996024;28;20215;-74
2022/10/04 00:06:50;;;;;;;6.03;4.30;;;6.40;99.90;;;;;;5013611;28;20239;-74
2022/10/04 00:09:23;;;;;;;6.80;4.67;;;6.30;99.90;;;;;;5017007;28;20191;-75
2022/10/04 00:11:51;;;;;;;6.17;5.30;;;6.30;99.90;;;;;;5000379;28;20203;-75
2022/10/04 00:14:23;;;;;;;7.77;5.23;;;6.20;99.90;;;;;;5001022;28;20172;-75
2022/10/04 00:16:50;;;;;;;7.73;4.93;;;6.20;99.90;;;;;;5000198;28;20202;-75
2022/10/04 00:19:18;;;;;;;9.33;5.10;;;6.30;99.90;;;;;;4999892;28;20176;-75
2022/10/04 00:21:54;;;;;;;9.30;5.17;;;6.30;99.90;;;;;;5017580;28;20179;-75
2022/10/04 00:24:23;;;;;;;7.83;5.07;;;6.40;99.90;;;;;;5000727;28;20202;-75
2022/10/04 00:26:49;;;;;;;11.60;5.73;;;6.50;99.90;;;;;;4999888;28;20215;-75
2022/10/04 00:29:33;;;;;;;7.57;5.78;;;6.70;99.90;;;;;;5000591;28;20187;-75
2022/10/04 00:32:11;;;;;;;41.03;6.68;;;6.80;99.90;;;;;;4999755;28;20191;-75
2022/10/04 00:34:48;;;;;;;35.47;6.93;;;6.80;99.90;;;;;;4999640;28;20183;-74
2022/10/04 00:37:16;;;;;;;34.85;7.20;;;6.90;99.90;;;;;;5017660;28;20194;-74
2022/10/04 00:39:45;;;;;;;80.75;8.25;;;7.00;99.90;;;;;;4999587;28;20287;-74
2022/10/04 00:43:07;;;;;;;49.63;6.95;;;7.00;99.90;;;;;;4999519;28;20183;-74
2022/10/04 00:45:43;;;;;;;30.20;6.37;;;7.00;99.90;;;;;;4983364;28;20218;-75
2022/10/04 00:48:36;;;;;;;12.95;6.05;;;6.90;99.90;;;;;;4999426;28;20171;-75
2022/10/04 00:51:24;;;;;;;9.63;5.78;;;7.00;99.90;;;;;;4999427;28;20167;-75
2022/10/04 00:54:10;;;;;;;8.57;5.28;;;7.10;99.90;;;;;;5000145;28;20167;-75
2022/10/04 00:56:51;;;;;;;16.17;5.53;;;7.20;99.90;;;;;;4999188;28;20206;-75
2022/10/04 01:02:44;;;;;;;17.42;5.60;;;7.40;99.90;;;;;;5017032;28;20159;-75
2022/10/04 01:05:32;;;;;;;23.67;6.22;;;7.50;99.90;;;;;;4999417;28;20196;-74
2022/10/04 01:08:24;;;;;;;41.58;6.03;;;7.50;99.90;;;;;;5016989;28;20202;-74
2022/10/04 01:10:59;;;;;;;24.17;5.45;;;7.50;99.90;;;;;;5016578;28;20195;-74
2022/10/04 01:13:38;;;;;;;17.60;5.40;;;7.50;99.90;;;;;;4999985;28;20175;-74
2022/10/04 01:16:28;;;;;;;12.90;5.70;;;7.20;99.90;;;;;;4998953;28;20203;-74
2022/10/04 01:18:54;;;;;;;22.38;5.40;;;7.20;99.90;;;;;;4999833;28;20257;-74
2022/10/04 01:21:19;;;;;;;7.28;5.60;;;7.10;99.90;;;;;;4998278;28;20207;-74
2022/10/04 01:24:14;;;;;;;12.40;6.35;;;7.00;99.90;;;;;;4999569;28;20226;-75
2022/10/04 01:26:42;;;;;;;14.50;5.25;;;7.10;99.90;;;;;;4998697;28;20207;-74
2022/10/04 01:29:08;;;;;;;35.85;5.95;;;7.10;99.90;;;;;;4998526;28;20175;-74
2022/10/04 01:32:01;;;;;;;24.33;5.80;;;7.10;99.90;;;;;;4998749;28;20178;-74
2022/10/04 01:34:29;;;;;;;84.35;7.20;;;7.10;99.90;;;;;;4994139;28;20255;-74
2022/10/04 01:36:58;;;;;;;40.72;5.90;;;7.10;99.90;;;;;;4998542;28;20218;-74
2022/10/04 01:39:25;;;;;;;40.33;5.63;;;7.20;99.90;;;;;;4998271;28;20219;-74
2022/10/04 01:42:07;;;;;;;71.80;6.82;;;7.30;99.90;;;;;;4998661;28;20199;-74
2022/10/04 01:45:14;;;;;;;38.22;5.60;;;7.20;99.90;;;;;;4998109;28;20176;-74
2022/10/04 01:47:56;;;;;;;21.83;5.95;;;7.20;99.90;;;;;;4901569;29;20222;-74
2022/10/04 01:50:36;;;;;;;68.30;7.05;;;7.10;99.90;;;;;;4993716;28;20202;-74
2022/10/04 01:53:23;;;;;;;12.45;5.60;;;7.10;99.90;;;;;;5015881;28;20673;-74
2022/10/04 01:56:02;;;;;;;23.05;5.07;;;7.10;99.90;;;;;;4997888;28;20203;-74
2022/10/04 01:58:32;;;;;;;43.60;5.93;;;7.20;99.90;;;;;;4998735;28;20172;-74
2022/10/04 02:01:30;;;;;;;56.03;5.47;;;7.20;99.90;;;;;;5015379;28;20544;-74
2022/10/04 02:04:04;;;;;;;37.63;5.22;;;7.20;99.90;;;;;;5016177;28;20166;-74
2022/10/04 02:06:37;;;;;;;12.45;5.50;;;7.10;99.90;;;;;;4997630;28;20341;-74
2022/10/04 02:09:14;;;;;;;15.13;5.20;;;7.20;99.90;;;;;;4997779;28;20164;-74
2022/10/04 02:11:42;;;;;;;11.45;4.75;;;7.10;99.90;;;;;;4997719;28;20182;-74
2022/10/04 02:14:14;;;;;;;8.38;4.03;;;7.10;99.90;;;;;;5015437;28;20182;-75
2022/10/04 02:16:43;;;;;;;8.98;4.03;;;7.10;99.90;;;;;;4997484;28;20198;-75
2022/10/04 02:19:10;;;;;;;24.92;4.63;;;7.10;99.90;;;;;;4998307;28;20179;-75
2022/10/04 02:24:58;;;;;;;16.00;4.80;;;7.10;99.90;;;;;;5014982;28;20218;-75
2022/10/04 02:27:28;;;;;;;21.57;4.53;;;7.00;99.90;;;;;;4997728;28;20214;-75
2022/10/04 02:30:07;;;;;;;31.73;5.17;;;6.90;99.90;;;;;;4997410;28;20183;-75
2022/10/04 02:35:18;;;;;;;24.57;5.77;;;6.70;99.90;;;;;;5014897;28;20233;-75
2022/10/04 02:37:49;;;;;;;25.47;6.03;;;6.90;99.90;;;;;;4997607;28;20226;-75
2022/10/04 02:40:25;;;;;;;47.60;6.22;;;6.90;99.90;;;;;;4998061;28;20172;-75
2022/10/04 02:43:13;;;;;;;70.00;6.13;;;6.90;99.90;;;;;;5015490;28;20175;-75
2022/10/04 02:45:49;;;;;;;123.78;7.38;;;7.00;99.90;;;;;;4997482;28;20274;-75
2022/10/04 02:48:37;;;;;;;95.60;6.57;;;6.90;99.90;;;;;;4997036;28;20194;-75
2022/10/04 02:51:13;;;;;;;11.90;6.30;;;7.00;99.90;;;;;;4997020;28;20210;-75
2022/10/04 02:53:42;;;;;;;73.45;6.80;;;7.10;99.90;;;;;;4997748;28;20174;-75
2022/10/04 02:56:10;;;;;;;35.25;6.10;;;7.20;99.90;;;;;;4996842;28;20196;-75
2022/10/04 02:58:39;;;;;;;104.75;6.78;;;7.10;99.90;;;;;;4997217;28;20642;-74
2022/10/04 03:01:05;;;;;;;22.93;6.37;;;7.00;99.90;;;;;;4997324;28;20187;-74
2022/10/04 03:03:33;;;;;;;18.87;5.67;;;7.00;99.90;;;;;;4997314;28;20709;-74
2022/10/04 03:06:16;;;;;;;22.23;6.40;;;7.10;99.90;;;;;;4996790;28;20207;-74
2022/10/04 03:08:42;;;;;;;11.05;4.50;;;7.10;99.90;;;;;;4997161;28;20167;-74
2022/10/04 03:11:10;;;;;;;5.63;5.13;;;7.20;99.90;;;;;;4997419;28;20179;-74
2022/10/04 03:13:37;;;;;;;26.30;5.50;;;7.10;99.90;;;;;;4997452;28;20176;-74
2022/10/04 03:16:04;;;;;;;10.55;5.70;;;7.20;99.90;;;;;;4996752;28;20260;-74
2022/10/04 03:18:31;;;;;;;30.50;5.63;;;7.20;99.90;;;;;;5014341;28;20178;-74
2022/10/04 03:21:00;;;;;;;8.65;7.95;;;7.10;99.90;;;;;;5014025;28;20175;-74
2022/10/04 03:23:29;;;;;;;39.70;34.88;;;7.10;99.90;;;;;;5014251;28;20179;-74
2022/10/04 03:26:18;;;;;;;15.45;13.85;;;7.10;99.90;;;;;;4996693;28;20254;-74
2022/10/04 03:28:44;;;;;;;10.95;8.13;;;7.20;99.90;;;;;;5013907;28;20235;-74
2022/10/04 03:31:14;;;;;;;10.45;6.93;;;7.30;99.90;;;;;;4996310;28;20179;-74
2022/10/04 03:33:42;;;;;;;13.00;11.25;;;7.40;99.90;;;;;;4996845;28;20171;-74
2022/10/04 03:36:13;;;;;;;13.88;6.15;;;7.40;99.90;;;;;;5013922;28;20223;-74
2022/10/04 03:38:39;;;;;;;7.22;5.60;;;7.30;99.90;;;;;;4997116;28;20182;-74
2022/10/04 03:41:05;;;;;;;16.75;5.78;;;7.30;99.90;;;;;;4996764;28;20179;-74
2022/10/04 03:43:36;;;;;;;9.98;5.40;;;7.30;99.90;;;;;;5013341;28;20707;-74
2022/10/04 03:46:04;;;;;;;17.70;6.32;;;7.40;99.90;;;;;;5013593;28;20199;-74
2022/10/04 03:48:41;;;;;;;17.98;5.93;;;7.30;99.90;;;;;;4997192;28;20184;-74
2022/10/04 03:51:13;;;;;;;44.20;6.43;;;7.30;99.90;;;;;;4996930;28;20159;-74
2022/10/04 03:53:43;;;;;;;47.17;5.75;;;7.30;99.90;;;;;;4996701;28;20171;-74
2022/10/04 03:56:14;;;;;;;66.90;6.88;;;7.20;99.90;;;;;;4995961;28;20226;-74
2022/10/04 03:58:40;;;;;;;17.80;5.40;;;7.20;99.90;;;;;;5013995;28;20171;-74
2022/10/04 04:01:31;;;;;;;13.70;6.20;;;7.30;99.90;;;;;;4996240;28;20180;-74
2022/10/04 04:04:19;;;;;;;13.57;5.95;;;7.30;99.90;;;;;;4996590;28;20172;-74
2022/10/04 04:07:02;;;;;;;37.88;6.40;;;7.30;99.90;;;;;;4995821;28;20238;-74
2022/10/04 04:10:05;;;;;;;24.42;7.20;;;7.40;99.90;;;;;;4996723;28;20182;-74
2022/10/04 04:12:40;;;;;;;42.25;7.10;;;7.30;99.90;;;;;;4996068;28;20684;-74
2022/10/04 04:15:10;;;;;;;83.60;7.25;;;7.40;99.90;;;;;;5013421;28;20195;-74
2022/10/04 04:17:41;;;;;;;27.42;5.70;;;7.30;99.90;;;;;;4996704;28;20184;-75
2022/10/04 04:20:26;;;;;;;14.70;6.07;;;7.30;99.90;;;;;;4996543;28;20253;-75
2022/10/04 04:23:22;;;;;;;15.13;5.82;;;7.20;99.90;;;;;;4996625;28;20168;-75
2022/10/04 04:25:56;;;;;;;72.63;6.63;;;7.20;99.90;;;;;;4995897;28;20279;-75
2022/10/04 04:28:40;;;;;;;64.55;7.25;;;7.10;99.90;;;;;;4996564;28;20179;-75
2022/10/04 04:31:14;;;;;;;37.13;10.33;;;7.00;99.90;;;;;;4996549;28;20168;-75
2022/10/04 04:33:58;;;;;;;23.95;6.57;;;7.10;99.90;;;;;;4996249;28;20187;-75
2022/10/04 04:36:25;;;;;;;22.15;6.63;;;7.00;99.90;;;;;;5013343;28;20234;-75
2022/10/04 04:41:35;;;;;;;30.65;6.32;;;7.10;99.90;;;;;;5013781;28;20175;-75
2022/10/04 04:44:02;;;;;;;13.55;6.40;;;7.30;99.90;;;;;;4996187;28;20183;-75
2022/10/04 04:46:28;;;;;;;17.40;6.47;;;7.30;99.90;;;;;;4995823;28;20270;-75
2022/10/04 04:49:01;;;;;;;22.05;6.85;;;7.30;99.90;;;;;;5013162;28;20221;-75
2022/10/04 04:51:28;;;;;;;18.35;6.95;;;7.20;99.90;;;;;;4995705;28;20176;-75
2022/10/04 04:53:55;;;;;;;74.20;7.57;;;7.10;99.90;;;;;;5013831;28;20243;-74
2022/10/04 04:56:30;;;;;;;19.23;7.13;;;7.10;99.90;;;;;;4998500;28;20203;-75
2022/10/04 05:02:37;;;;;;;43.25;7.75;;;7.20;99.90;;;;;;5016662;28;20171;-75
2022/10/04 05:05:23;;;;;;;143.77;8.32;;;7.10;99.90;;;;;;4999638;28;20199;-75
2022/10/04 05:08:08;;;;;;;27.83;6.87;;;7.00;99.90;;;;;;5016368;28;20191;-75
2022/10/04 05:10:34;;;;;;;28.05;7.35;;;7.10;99.90;;;;;;5016688;28;20168;-75
2022/10/04 05:13:00;;;;;;;110.82;7.78;;;7.10;99.90;;;;;;4999095;28;20515;-74
2022/10/04 05:15:32;;;;;;;21.52;6.45;;;7.10;99.90;;;;;;4998751;28;20200;-74
2022/10/04 05:17:58;;;;;;;43.47;5.57;;;7.10;99.90;;;;;;4999629;28;20580;-74
2022/10/04 05:20:25;;;;;;;35.57;6.83;;;7.00;99.90;;;;;;4998933;28;20222;-74
2022/10/04 05:22:51;;;;;;;29.97;6.97;;;7.00;99.90;;;;;;4999440;28;20207;-74
2022/10/04 05:25:31;;;;;;;10.20;6.93;;;7.00;99.90;;;;;;4998776;28;20612;-74
2022/10/04 05:27:56;;;;;;;21.15;6.95;;;7.00;99.90;;;;;;4999064;28;20184;-75
2022/10/04 05:31:13;;;;;;;72.93;6.78;;;7.00;99.90;;;;;;4998398;28;20195;-75
2022/10/04 05:33:59;;;;;;;69.80;6.80;;;7.10;99.90;;;;;;4974675;28;20198;-78
2022/10/04 05:36:45;;;;;;;33.43;7.10;;;7.10;99.90;;;;;;4998065;28;20223;-75
2022/10/04 05:39:25;;;;;;;39.87;7.00;;;7.00;99.90;;;;;;5016135;28;20258;-75
2022/10/04 05:42:13;;;;;;;31.47;7.60;;;6.90;99.90;;;;;;5015876;28;20172;-75
2022/10/04 05:44:56;;;;;;;19.45;6.70;;;7.00;99.90;;;;;;5015956;28;20227;-75
2022/10/04 05:47:27;;;;;;;19.23;6.47;;;7.20;99.90;;;;;;4998118;28;20211;-74
2022/10/04 05:49:56;;;;;;;17.45;6.80;;;7.20;99.90;;;;;;4998143;28;20182;-74
2022/10/04 05:52:39;;;;;;;142.65;8.93;;;7.30;99.90;;;;;;4998151;28;20180;-74
2022/10/04 05:55:11;;;;;;;10.07;6.03;;;7.30;99.90;;;;;;4998201;28;20678;-74
2022/10/04 05:57:58;;;;;;;19.77;6.80;;;7.50;99.90;;;;;;4999018;28;20263;-74
2022/10/04 06:00:44;;;;;;;19.65;6.72;;;7.50;99.90;;;;;;4998721;28;20176;-74
2022/10/04 06:03:39;;;;;;;32.70;6.53;;;7.60;99.90;;;;;;4997412;28;20195;-74
2022/10/04 06:06:27;;;;;;;16.33;6.20;;;7.70;99.90;;;;;;5014481;28;20211;-74
2022/10/04 06:09:32;;;;;;;6.72;5.70;;;7.70;99.90;;;;;;5015122;28;20273;-74
2022/10/04 06:12:16;;;;;;;47.17;6.70;;;7.80;99.90;;;;;;4996380;28;20190;-74
2022/10/04 06:14:47;;;;;;;7.95;4.82;;;7.80;99.90;;;;;;4977951;28;20172;-74
2022/10/04 06:17:33;;;;;;;5.72;5.03;;;7.80;99.90;;;;;;4978165;28;20177;-74
2022/10/04 06:20:10;;;;;;;30.70;5.57;;;7.70;99.90;;;;;;4978243;28;20623;-74
2022/10/04 06:22:47;;;;;;;6.25;5.28;;;7.60;99.90;;;;;;5001649;28;20176;-74
2022/10/04 06:25:35;;;;;;;6.75;5.32;;;7.80;99.90;;;;;;4997343;28;20740;-74
2022/10/04 06:28:37;;;;;;;12.07;4.90;;;7.80;99.90;;;;;;4997705;28;20178;-74
2022/10/04 06:31:23;;;;;;;5.18;4.78;;;7.80;99.90;;;;;;4991897;28;20187;-74
2022/10/04 06:33:55;;;;;;;5.60;5.10;;;7.90;99.90;;;;;;5014711;28;20163;-74
2022/10/04 06:36:52;;;;;;;9.25;5.22;;;8.00;99.90;;;;;;4997102;28;20223;-73
2022/10/04 06:39:27;;;;;;;12.32;4.90;;;8.10;99.90;;;;;;4990155;28;20196;-74
2022/10/04 06:42:19;;;;;;;7.53;5.15;;;8.10;99.90;;;;;;4997035;28;20183;-74
2022/10/04 06:45:06;;;;;;;6.70;4.50;;;8.10;99.90;;;;;;4997196;28;20314;-74
2022/10/04 06:47:50;;;;;;;5.80;4.97;;;8.20;99.90;;;;;;4997228;28;20207;-74
2022/10/04 06:50:47;;;;;;;13.85;5.40;;;8.40;99.90;;;;;;5014560;28;20159;-74
2022/10/04 06:53:23;;;;;;;9.68;5.18;;;8.40;99.90;;;;;;4996886;28;20186;-74
2022/10/04 06:56:10;;;;;;;8.88;5.13;;;8.50;99.90;;;;;;4997110;28;20227;-74
2022/10/04 06:58:54;;;;;;;4.97;4.57;;;8.60;99.90;;;;;;4997114;28;20164;-74
2022/10/04 07:01:44;;;;;;;5.40;4.90;;;8.50;99.90;;;;;;4996972;28;20545;-74
2022/10/04 07:04:12;;;;;;;4.65;4.25;;;8.70;99.90;;;;;;4996998;28;20177;-74
2022/10/04 07:10:03;;;;;;;5.82;4.50;;;8.90;99.90;;;;;;5014414;28;20174;-74
2022/10/04 07:12:31;;;;;;;4.50;4.13;;;9.00;99.90;;;;;;4996697;28;20182;-74
2022/10/04 07:15:02;;;;;;;7.18;4.35;;;9.00;99.90;;;;;;5014128;28;20192;-74
2022/10/04 07:17:41;;;;;;;7.78;3.65;;;8.90;99.90;;;;;;5013482;28;20171;-74
2022/10/04 07:20:19;;;;;;;7.18;5.05;;;8.90;99.90;;;;;;4996218;28;20175;-74
2022/10/04 07:22:50;;;;;;;6.60;4.03;;;9.00;99.90;;;;;;4997051;28;20262;-74
2022/10/04 07:25:55;;;;;;;5.40;4.97;;;9.10;99.90;;;;;;4996235;28;20307;-74
2022/10/04 07:31:13;;;;;;;5.65;4.88;;;8.90;99.90;;;;;;5013973;28;20234;-74
2022/10/04 07:33:49;;;;;;;5.85;5.35;;;9.10;99.90;;;;;;4998502;28;20172;-74
2022/10/04 07:36:21;;;;;;;7.30;6.28;;;9.10;99.90;;;;;;5002584;28;20219;-74
2022/10/04 07:39:06;;;;;;;6.90;6.28;;;9.10;99.90;;;;;;5015427;28;20242;-74
2022/10/04 07:41:45;;;;;;;5.60;5.05;;;9.30;99.90;;;;;;4998131;28;20167;-74
2022/10/04 07:44:32;;;;;;;6.43;5.82;;;9.30;99.90;;;;;;5010298;28;20238;-74
2022/10/04 07:47:10;;;;;;;6.10;5.60;;;9.20;99.90;;;;;;5011561;28;20226;-74
2022/10/04 07:49:40;;;;;;;8.38;5.47;;;9.40;99.90;;;;;;5001778;28;20199;-75
2022/10/04 07:52:21;;;;;;;6.53;5.90;;;9.70;99.90;;;;;;5002230;28;20202;-75
2022/10/04 07:55:15;;;;;;;5.97;5.47;;;9.80;99.90;;;;;;4997213;28;20175;-75
2022/10/04 07:57:57;;;;;;;5.70;5.20;;;9.90;99.90;;;;;;5014304;28;20218;-75
2022/10/04 08:00:24;;;;;;;7.43;5.40;;;9.80;99.90;;;;;;4996475;28;20180;-75
2022/10/04 08:03:19;;;;;;;5.38;4.88;;;9.90;99.90;;;;;;4997278;28;20241;-75
2022/10/04 08:06:10;;;;;;;6.10;5.20;;;10.10;99.90;;;;;;4996425;28;20206;-75
2022/10/04 08:08:59;;;;;;;4.82;4.43;;;10.40;99.90;;;;;;4995747;28;20186;-74
2022/10/04 08:11:49;;;;;;;8.57;4.40;;;10.70;99.90;;;;;;5014199;28;20251;-75
2022/10/04 08:14:34;;;;;;;4.55;4.10;;;10.80;99.90;;;;;;4996449;28;20239;-74
2022/10/04 08:17:18;;;;;;;5.32;3.80;;;10.80;99.90;;;;;;5013647;28;20670;-74
2022/10/04 08:20:18;;;;;;;4.30;4.00;;;10.80;99.90;;;;;;4997099;28;20233;-74
2022/10/04 08:22:53;;;;;;;6.22;4.10;;;10.90;99.90;;;;;;4996412;28;20283;-74
2022/10/04 08:25:25;;;;;;;5.90;4.40;;;10.90;99.90;;;;;;4996149;28;20205;-74
2022/10/04 08:31:38;;;;;;;5.30;4.68;;;11.10;99.90;;;;;;4983580;28;20207;-76
2022/10/04 08:34:14;;;;;;;6.43;5.40;;;11.20;99.90;;;;;;4999536;28;20191;-75
2022/10/04 08:36:50;;;;;;;6.63;5.22;;;11.50;99.90;;;;;;4998725;28;20218;-74
2022/10/04 08:39:28;;;;;;;6.20;5.60;;;11.70;99.90;;;;;;4999082;28;20190;-75
2022/10/04 08:42:41;;;;;;;8.30;6.15;;;11.70;99.90;;;;;;4998307;28;20182;-74
2022/10/04 08:45:28;;;;;;;9.75;6.85;;;11.70;99.90;;;;;;5016526;28;20199;-74
2022/10/04 08:48:18;;;;;;;8.98;6.75;;;11.60;99.90;;;;;;5017002;28;20207;-74
2022/10/04 08:51:20;;;;;;;8.75;7.50;;;11.50;99.90;;;;;;5000549;28;20238;-75
2022/10/04 08:54:04;;;;;;;9.43;7.30;;;11.60;99.90;;;;;;5017468;28;20206;-75
2022/10/04 08:56:39;;;;;;;8.20;7.32;;;11.60;99.90;;;;;;4999671;28;20211;-75
2022/10/04 08:59:18;;;;;;;7.95;6.90;;;11.70;99.90;;;;;;4999994;28;20171;-75
2022/10/04 09:02:34;;;;;;;9.00;7.18;;;11.70;99.90;;;;;;5016953;28;20258;-75
2022/10/04 09:04:59;;;;;;;9.07;6.40;;;11.90;99.90;;;;;;4999223;28;20227;-75
2022/10/04 09:08:10;;;;;;;7.90;6.72;;;12.20;99.90;;;;;;5015938;28;20281;-74
2022/10/04 09:11:06;;;;;;;7.43;6.00;;;12.20;99.90;;;;;;4995587;28;20200;-75
2022/10/04 09:14:04;;;;;;;7.20;6.43;;;12.00;99.90;;;;;;4978298;28;20168;-74
2022/10/04 09:16:58;;;;;;;7.05;6.35;;;12.00;99.90;;;;;;4994894;28;20200;-74
2022/10/04 09:19:34;;;;;;;9.20;5.90;;;12.20;99.90;;;;;;4951758;28;20274;-74
2022/10/04 09:22:16;;;;;;;6.80;6.10;;;12.40;99.90;;;;;;4995572;28;20176;-74
2022/10/04 09:25:17;;;;;;;7.35;6.65;;;12.40;99.90;;;;;;4983118;28;20191;-76
2022/10/04 09:28:19;;;;;;;7.40;6.70;;;12.40;99.90;;;;;;4999316;28;20214;-75
2022/10/04 09:31:06;;;;;;;9.02;7.32;;;12.40;99.90;;;;;;4999338;28;20213;-75
2022/10/04 09:33:58;;;;;;;8.68;7.53;;;12.60;99.90;;;;;;4998783;28;20254;-75
2022/10/04 09:36:45;;;;;;;11.50;9.25;;;12.70;99.90;;;;;;4997052;28;20281;-74
2022/10/04 09:39:26;;;;;;;11.13;9.60;;;12.80;99.90;;;;;;4996623;28;20194;-74
2022/10/04 09:41:54;;;;;;;10.55;8.98;;;12.80;99.90;;;;;;4989576;28;20182;-74
2022/10/04 09:44:25;;;;;;;10.68;9.38;;;12.70;99.90;;;;;;5002834;28;20168;-74
2022/10/04 09:47:07;;;;;;;10.50;9.40;;;12.60;99.90;;;;;;4978318;28;20283;-74
2022/10/04 09:49:58;;;;;;;10.07;9.07;;;12.50;99.90;;;;;;4980008;28;20168;-74
2022/10/04 09:52:57;;;;;;;13.20;8.10;;;12.50;99.90;;;;;;4996186;28;20199;-74
2022/10/04 09:55:51;;;;;;;10.07;8.60;;;12.60;99.90;;;;;;4979285;28;20235;-74
2022/10/04 09:58:47;;;;;;;9.48;8.10;;;12.80;99.90;;;;;;4996587;28;20176;-74
2022/10/04 10:01:36;;;;;;;9.82;8.23;;;13.00;99.90;;;;;;4951658;28;20190;-74
2022/10/04 10:04:33;;;;;;;9.18;7.82;;;13.20;99.90;;;;;;4979307;28;20200;-75
2022/10/04 10:07:07;;;;;;;11.52;8.45;;;13.30;99.90;;;;;;4996185;28;20225;-76
2022/10/04 10:16:24;;;;;;;9.55;8.65;;;13.70;99.90;;;;;;4996223;28;20207;-75
2022/10/04 10:19:10;;;;;;;9.10;8.20;;;13.60;99.90;;;;;;4995770;28;20152;-75
2022/10/04 10:21:42;;;;;;;10.75;7.90;;;13.70;99.90;;;;;;4978292;28;20165;-75
2022/10/04 10:24:22;;;;;;;14.50;12.95;;;13.90;99.90;;;;;;4983512;28;20184;-78
2022/10/04 10:27:07;;;;;;;10.45;9.23;;;14.00;99.90;;;;;;4978478;28;20235;-75
2022/10/04 10:29:58;;;;;;;9.30;7.55;;;14.20;99.90;;;;;;4978149;28;20647;-75
2022/10/04 10:32:32;;;;;;;9.50;7.93;;;14.10;99.90;;;;;;4978216;28;20172;-75
2022/10/04 10:35:19;;;;;;;9.70;8.18;;;14.30;99.90;;;;;;4995815;28;20188;-80
2022/10/04 10:38:23;;;;;;;22.27;19.70;;;14.60;99.90;;;;;;4978207;28;20200;-75
2022/10/04 10:41:30;;;;;;;12.63;10.02;;;14.50;99.90;;;;;;4977571;28;20195;-75
2022/10/04 10:44:06;;;;;;;11.73;9.02;;;14.20;99.90;;;;;;4996185;28;20234;-75
2022/10/04 10:46:53;;;;;;;13.63;11.40;;;13.90;99.90;;;;;;4978168;28;20290;-75
2022/10/04 10:49:49;;;;;;;11.48;9.77;;;13.70;99.90;;;;;;4995337;28;20679;-76
2022/10/04 10:52:40;;;;;;;11.68;8.82;;;13.70;99.90;;;;;;4993579;28;20180;-74
2022/10/04 10:55:26;;;;;;;15.15;12.10;;;13.70;99.90;;;;;;4978321;28;20196;-75
2022/10/04 10:58:24;;;;;;;54.15;38.17;;;13.70;99.90;;;;;;4977608;28;20168;-75
2022/10/04 11:01:03;;;;;;;17.13;11.10;;;13.70;99.90;;;;;;4977915;28;20171;-75
2022/10/04 11:04:06;;;;;;;14.75;10.43;;;13.60;99.90;;;;;;4995044;28;20168;-75
2022/10/04 11:07:04;;;;;;;34.97;19.65;;;13.60;99.90;;;;;;4978256;28;20212;-74
2022/10/04 11:09:41;;;;;;;23.55;14.68;;;13.60;99.90;;;;;;4995323;28;20165;-74
2022/10/04 11:12:40;;;;;;;19.23;14.30;;;13.70;99.90;;;;;;4977232;28;20170;-75
2022/10/04 11:15:38;;;;;;;11.25;9.65;;;13.60;99.90;;;;;;4996925;28;20215;-75
2022/10/04 11:18:15;;;;;;;9.88;8.88;;;13.70;99.90;;;;;;5003502;28;20180;-75
2022/10/04 11:20:54;;;;;;;11.35;7.85;;;13.70;99.90;;;;;;4986437;28;20321;-75
2022/10/04 11:23:38;;;;;;;11.52;6.80;;;13.90;99.90;;;;;;5002738;28;20179;-75
2022/10/04 11:26:07;;;;;;;7.85;7.05;;;13.90;99.90;;;;;;5001193;28;20222;-74
2022/10/04 11:28:55;;;;;;;8.45;7.25;;;14.00;99.90;;;;;;4977172;28;20176;-75
2022/10/04 11:31:39;;;;;;;10.88;7.55;;;14.10;99.90;;;;;;4979049;28;20177;-75
2022/10/04 11:34:42;;;;;;;9.70;6.35;;;14.10;99.90;;;;;;4977500;28;20176;-75
2022/10/04 11:37:45;;;;;;;8.27;6.40;;;14.10;99.90;;;;;;4977160;28;20200;-75
2022/10/04 11:40:25;;;;;;;8.60;5.78;;;14.00;99.90;;;;;;4976945;28;20180;-73
2022/10/04 11:42:51;;;;;;;9.02;5.68;;;14.00;99.90;;;;;;4976841;28;20180;-74
2022/10/04 11:45:45;;;;;;;12.18;5.57;;;14.10;99.90;;;;;;4977519;28;20601;-74
2022/10/04 11:48:34;;;;;;;7.18;5.65;;;14.30;99.90;;;;;;4994173;28;20215;-74
2022/10/04 11:51:30;;;;;;;6.28;5.32;;;14.40;99.90;;;;;;4976988;28;20187;-74
2022/10/04 11:54:20;;;;;;;7.32;4.93;;;14.50;99.90;;;;;;4994032;28;20548;-74
2022/10/04 11:56:48;;;;;;;7.93;4.93;;;14.50;99.90;;;;;;4977610;28;20603;-74
2022/10/04 11:59:26;;;;;;;7.38;5.20;;;14.50;99.90;;;;;;4977424;28;20184;-74
2022/10/04 12:02:31;;;;;;;8.35;4.88;;;14.50;99.90;;;;;;4977250;28;20223;-74
2022/10/04 12:05:14;;;;;;;6.95;4.63;;;14.60;99.90;;;;;;4978742;28;20191;-74
2022/10/04 12:08:15;;;;;;;7.40;5.43;;;14.70;99.90;;;;;;4981384;28;20207;-74
2022/10/04 12:10:43;;;;;;;7.75;5.05;;;14.90;99.90;;;;;;4970233;28;20533;-74
2022/10/04 12:13:23;;;;;;;8.10;4.38;;;14.90;99.90;;;;;;4997983;28;20179;-74
2022/10/04 12:16:24;;;;;;;6.97;4.13;;;15.00;99.90;;;;;;4998446;28;20224;-74
2022/10/04 12:19:06;;;;;;;6.55;3.70;;;14.90;99.90;;;;;;4980573;28;20203;-74
2022/10/04 12:22:00;;;;;;;5.57;3.80;;;14.90;99.90;;;;;;4997778;28;20156;-74
2022/10/04 12:24:26;;;;;;;5.50;3.47;;;14.80;99.90;;;;;;4980334;28;20168;-74
2022/10/04 12:27:28;;;;;;;5.15;3.58;;;14.60;99.90;;;;;;4998152;28;20236;-74
2022/10/04 12:30:19;;;;;;;6.60;3.75;;;14.60;99.90;;;;;;4981579;28;20562;-74
2022/10/04 12:33:11;;;;;;;5.03;3.60;;;14.60;99.90;;;;;;4980984;28;20191;-74
2022/10/04 12:35:47;;;;;;;5.47;3.35;;;14.60;99.90;;;;;;4980845;28;20196;-74
2022/10/04 12:38:16;;;;;;;5.53;3.50;;;14.60;99.90;;;;;;4997763;28;20230;-74
2022/10/04 12:40:53;;;;;;;8.43;3.88;;;14.70;99.90;;;;;;4980879;28;20172;-74
2022/10/04 12:43:33;;;;;;;6.60;3.80;;;14.80;99.90;;;;;;4979982;28;20188;-74
2022/10/04 12:46:14;;;;;;;5.65;3.78;;;14.90;99.90;;;;;;4980338;28;20554;-74
2022/10/04 12:49:01;;;;;;;6.47;3.30;;;15.00;99.90;;;;;;4980526;28;20207;-74
2022/10/04 12:51:51;;;;;;;8.25;3.17;;;15.10;99.90;;;;;;4980637;28;20230;-74
2022/10/04 12:54:32;;;;;;;3.88;2.45;;;15.10;99.90;;;;;;4980582;28;20168;-74
2022/10/04 12:57:19;;;;;;;6.40;3.00;;;15.20;99.90;;;;;;4979737;28;20180;-74
2022/10/04 13:00:02;;;;;;;5.75;2.30;;;15.30;99.90;;;;;;4997400;28;20182;-74
2022/10/04 13:02:41;;;;;;;4.88;2.53;;;15.40;99.90;;;;;;4980392;28;20180;-74
2022/10/04 13:05:25;;;;;;;6.88;2.55;;;15.30;99.90;;;;;;4987469;28;20207;-74
2022/10/04 13:08:02;;;;;;;10.93;2.60;;;15.40;99.90;;;;;;4998056;28;20208;-74
2022/10/04 13:10:46;;;;;;;6.68;2.50;;;15.40;99.90;;;;;;5015839;28;20168;-74
2022/10/04 13:13:40;;;;;;;4.07;2.20;;;15.40;99.90;;;;;;5016557;28;20168;-74
2022/10/04 13:16:14;;;;;;;5.80;2.35;;;15.40;99.90;;;;;;4998502;28;20192;-74
2022/10/04 13:19:32;;;;;;;4.50;2.38;;;15.40;99.90;;;;;;4999625;28;20171;-74
2022/10/04 13:22:04;;;;;;;5.07;2.22;;;15.40;99.90;;;;;;4956544;28;20191;-74
2022/10/04 13:24:53;;;;;;;3.65;2.20;;;15.30;99.90;;;;;;4998828;28;20222;-75
2022/10/04 13:27:41;;;;;;;9.07;2.40;;;15.30;99.90;;;;;;4998753;28;20302;-80
2022/10/04 13:30:25;;;;;;;2.83;2.05;;;15.20;99.90;;;;;;4993875;28;20561;-74
2022/10/04 13:33:00;;;;;;;2.60;1.77;;;15.20;99.90;;;;;;4987838;28;20176;-74
2022/10/04 13:35:35;;;;;;;3.72;1.95;;;15.20;99.90;;;;;;5007374;28;20724;-74
2022/10/04 13:38:16;;;;;;;3.78;2.17;;;15.20;99.90;;;;;;5004196;28;20180;-74
2022/10/04 13:41:08;;;;;;;6.28;1.95;;;15.10;99.90;;;;;;4990068;28;20291;-74
2022/10/04 13:43:52;;;;;;;2.95;2.10;;;15.10;99.90;;;;;;4999415;28;20191;-74
2022/10/04 13:46:41;;;;;;;4.45;2.20;;;15.10;99.90;;;;;;5015206;28;20199;-74
2022/10/04 13:49:34;;;;;;;3.83;1.92;;;15.10;99.90;;;;;;4998522;28;20186;-74
2022/10/04 13:58:25;;;;;;;3.95;2.00;;;15.00;99.90;;;;;;5015514;28;20171;-74
2022/10/04 14:01:18;;;;;;;4.35;2.00;;;15.00;99.90;;;;;;4998026;28;20180;-74
2022/10/04 14:04:15;;;;;;;17.58;14.63;;;15.00;99.90;;;;;;4997932;28;20191;-74
2022/10/04 14:07:08;;;;;;;6.50;5.35;;;14.90;99.90;;;;;;4998608;28;20214;-79
2022/10/04 14:09:44;;;;;;;8.15;4.30;;;14.90;99.90;;;;;;4997316;28;20187;-74
2022/10/04 14:12:15;;;;;;;9.45;6.03;;;14.90;99.90;;;;;;4998479;28;20214;-74
2022/10/04 14:15:10;;;;;;;3.53;2.80;;;14.80;99.90;;;;;;4997827;28;20180;-74
2022/10/04 14:18:18;;;;;;;5.55;2.20;;;14.80;99.90;;;;;;4996201;28;20557;-74
2022/10/04 14:21:12;;;;;;;4.60;2.70;;;14.70;99.90;;;;;;4955596;28;20192;-74
2022/10/04 14:23:53;;;;;;;5.25;2.35;;;14.70;99.90;;;;;;4994880;28;20169;-74
2022/10/04 14:26:40;;;;;;;6.32;2.90;;;14.70;99.90;;;;;;4997447;28;20218;-74
2022/10/04 14:29:31;;;;;;;5.72;2.78;;;14.60;99.90;;;;;;4997084;28;20182;-74
2022/10/04 14:32:33;;;;;;;4.75;2.05;;;14.60;99.90;;;;;;5002840;28;20172;-74
2022/10/04 14:35:15;;;;;;;8.95;2.17;;;14.60;99.90;;;;;;5005158;28;20195;-74
2022/10/04 14:37:52;;;;;;;6.53;2.33;;;14.50;99.90;;;;;;4987552;28;20267;-74
2022/10/04 14:40:25;;;;;;;10.40;2.17;;;14.50;99.90;;;;;;5005159;28;20168;-74